sensor_id;sensor_type;location;lat;lon;timestamp;P1;durP1;ratioP1;P2;durP2;ratioP2
63398;SDS011;49533;-34.520;150.798;2022-09-03T00:02:35;1.58;;;0.80;;
63398;SDS011;49533;-34.520;150.798;2022-09-03T00:05:24;2.33;;;0.98;;
63398;SDS011;49533;-34.520;150.798;2022-09-03T00:08:08;0.60;;;0.55;;
63398;SDS011;49533;-34.520;150.798;2022-09-03T00:10:47;1.67;;;0.68;;
63398;SDS011;49533;-34.520;150.798;2022-09-03T00:13:23;1.02;;;0.47;;
63398;SDS011;49533;-34.520;150.798;2022-09-03T00:15:58;0.50;;;0.40;;
63398;SDS011;49533;-34.520;150.798;2022-09-03T00:18:30;0.40;;;0.40;;
63398;SDS011;49533;-34.520;150.798;2022-09-03T00:21:03;1.20;;;0.65;;
63398;SDS011;49533;-34.520;150.798;2022-09-03T00:23:38;0.65;;;0.43;;
63398;SDS011;49533;-34.520;150.798;2022-09-03T00:26:16;1.30;;;0.80;;
63398;SDS011;49533;-34.520;150.798;2022-09-03T00:28:54;0.63;;;0.50;;
63398;SDS011;49533;-34.520;150.798;2022-09-03T00:31:31;2.03;;;0.50;;
63398;SDS011;49533;-34.520;150.798;2022-09-03T00:34:10;0.50;;;0.50;;
63398;SDS011;49533;-34.520;150.798;2022-09-03T00:36:45;2.88;;;0.93;;
63398;SDS011;49533;-34.520;150.798;2022-09-03T00:39:14;1.80;;;0.52;;
63398;SDS011;49533;-34.520;150.798;2022-09-03T00:41:50;1.95;;;0.60;;
63398;SDS011;49533;-34.520;150.798;2022-09-03T00:44:46;1.85;;;0.47;;
63398;SDS011;49533;-34.520;150.798;2022-09-03T00:47:43;1.45;;;0.50;;
63398;SDS011;49533;-34.520;150.798;2022-09-03T00:53:25;2.33;;;0.80;;
63398;SDS011;49533;-34.520;150.798;2022-09-03T00:56:14;3.20;;;0.80;;
63398;SDS011;49533;-34.520;150.798;2022-09-03T00:59:02;3.05;;;0.90;;
63398;SDS011;49533;-34.520;150.798;2022-09-03T01:01:47;3.47;;;0.77;;
63398;SDS011;49533;-34.520;150.798;2022-09-03T01:04:34;6.30;;;1.00;;
63398;SDS011;49533;-34.520;150.798;2022-09-03T01:07:27;6.68;;;0.90;;
63398;SDS011;49533;-34.520;150.798;2022-09-03T01:10:10;0.82;;;0.60;;
63398;SDS011;49533;-34.520;150.798;2022-09-03T01:13:03;2.78;;;1.23;;
63398;SDS011;49533;-34.520;150.798;2022-09-03T01:15:42;2.75;;;1.20;;
63398;SDS011;49533;-34.520;150.798;2022-09-03T01:18:36;3.67;;;1.15;;
63398;SDS011;49533;-34.520;150.798;2022-09-03T01:21:22;4.75;;;1.17;;
63398;SDS011;49533;-34.520;150.798;2022-09-03T01:27:17;1.80;;;0.90;;
63398;SDS011;49533;-34.520;150.798;2022-09-03T01:30:09;3.80;;;1.10;;
63398;SDS011;49533;-34.520;150.798;2022-09-03T01:32:49;5.65;;;1.60;;
63398;SDS011;49533;-34.520;150.798;2022-09-03T01:35:35;6.88;;;1.55;;
63398;SDS011;49533;-34.520;150.798;2022-09-03T01:38:25;3.40;;;1.40;;
63398;SDS011;49533;-34.520;150.798;2022-09-03T01:41:05;3.77;;;1.30;;
63398;SDS011;49533;-34.520;150.798;2022-09-03T01:44:13;5.25;;;1.42;;
63398;SDS011;49533;-34.520;150.798;2022-09-03T01:46:58;3.97;;;1.33;;
63398;SDS011;49533;-34.520;150.798;2022-09-03T01:49:47;2.25;;;0.95;;
63398;SDS011;49533;-34.520;150.798;2022-09-03T01:52:28;4.75;;;1.33;;
63398;SDS011;49533;-34.520;150.798;2022-09-03T01:58:27;6.32;;;1.33;;
63398;SDS011;49533;-34.520;150.798;2022-09-03T02:01:00;6.32;;;1.75;;
63398;SDS011;49533;-34.520;150.798;2022-09-03T02:03:34;8.00;;;2.03;;
63398;SDS011;49533;-34.520;150.798;2022-09-03T02:06:06;6.60;;;1.80;;
63398;SDS011;49533;-34.520;150.798;2022-09-03T02:08:33;5.45;;;1.63;;
63398;SDS011;49533;-34.520;150.798;2022-09-03T02:11:00;10.52;;;2.30;;
63398;SDS011;49533;-34.520;150.798;2022-09-03T02:13:34;8.20;;;2.65;;
63398;SDS011;49533;-34.520;150.798;2022-09-03T02:16:13;10.63;;;1.77;;
63398;SDS011;49533;-34.520;150.798;2022-09-03T02:18:45;9.65;;;1.80;;
63398;SDS011;49533;-34.520;150.798;2022-09-03T02:21:17;9.95;;;2.20;;
63398;SDS011;49533;-34.520;150.798;2022-09-03T02:23:46;10.82;;;2.63;;
63398;SDS011;49533;-34.520;150.798;2022-09-03T02:26:15;10.25;;;1.92;;
63398;SDS011;49533;-34.520;150.798;2022-09-03T02:28:47;12.25;;;2.60;;
63398;SDS011;49533;-34.520;150.798;2022-09-03T02:31:15;6.88;;;1.77;;
63398;SDS011;49533;-34.520;150.798;2022-09-03T02:33:43;11.90;;;2.35;;
63398;SDS011;49533;-34.520;150.798;2022-09-03T02:36:14;13.82;;;2.35;;
63398;SDS011;49533;-34.520;150.798;2022-09-03T02:38:44;5.50;;;1.38;;
63398;SDS011;49533;-34.520;150.798;2022-09-03T02:41:12;12.15;;;2.60;;
63398;SDS011;49533;-34.520;150.798;2022-09-03T02:43:42;10.88;;;2.25;;
63398;SDS011;49533;-34.520;150.798;2022-09-03T02:46:21;10.02;;;2.30;;
63398;SDS011;49533;-34.520;150.798;2022-09-03T02:48:52;9.93;;;2.33;;
63398;SDS011;49533;-34.520;150.798;2022-09-03T02:51:20;11.65;;;2.40;;
63398;SDS011;49533;-34.520;150.798;2022-09-03T02:53:47;13.07;;;2.47;;
63398;SDS011;49533;-34.520;150.798;2022-09-03T02:56:14;11.55;;;1.98;;
63398;SDS011;49533;-34.520;150.798;2022-09-03T02:58:41;8.80;;;2.22;;
63398;SDS011;49533;-34.520;150.798;2022-09-03T03:01:08;9.73;;;2.35;;
63398;SDS011;49533;-34.520;150.798;2022-09-03T03:03:36;7.10;;;2.17;;
63398;SDS011;49533;-34.520;150.798;2022-09-03T03:06:03;14.02;;;2.05;;
63398;SDS011;49533;-34.520;150.798;2022-09-03T03:08:31;8.07;;;2.08;;
63398;SDS011;49533;-34.520;150.798;2022-09-03T03:10:59;10.40;;;1.90;;
63398;SDS011;49533;-34.520;150.798;2022-09-03T03:13:27;10.63;;;1.55;;
63398;SDS011;49533;-34.520;150.798;2022-09-03T03:15:56;5.47;;;1.70;;
63398;SDS011;49533;-34.520;150.798;2022-09-03T03:18:25;8.45;;;1.73;;
63398;SDS011;49533;-34.520;150.798;2022-09-03T03:20:53;11.00;;;1.85;;
63398;SDS011;49533;-34.520;150.798;2022-09-03T03:23:20;6.15;;;1.50;;
63398;SDS011;49533;-34.520;150.798;2022-09-03T03:25:47;7.00;;;1.77;;
63398;SDS011;49533;-34.520;150.798;2022-09-03T03:28:17;6.63;;;1.85;;
63398;SDS011;49533;-34.520;150.798;2022-09-03T03:30:44;8.30;;;2.20;;
63398;SDS011;49533;-34.520;150.798;2022-09-03T03:33:13;5.10;;;1.20;;
63398;SDS011;49533;-34.520;150.798;2022-09-03T03:35:40;6.88;;;1.67;;
63398;SDS011;49533;-34.520;150.798;2022-09-03T03:38:07;8.20;;;2.67;;
63398;SDS011;49533;-34.520;150.798;2022-09-03T03:40:36;10.32;;;3.75;;
63398;SDS011;49533;-34.520;150.798;2022-09-03T03:43:03;8.25;;;3.92;;
63398;SDS011;49533;-34.520;150.798;2022-09-03T03:45:31;11.80;;;5.07;;
63398;SDS011;49533;-34.520;150.798;2022-09-03T03:47:58;10.65;;;3.15;;
63398;SDS011;49533;-34.520;150.798;2022-09-03T03:50:25;10.98;;;2.75;;
63398;SDS011;49533;-34.520;150.798;2022-09-03T03:52:52;10.38;;;2.47;;
63398;SDS011;49533;-34.520;150.798;2022-09-03T03:55:19;5.00;;;2.00;;
63398;SDS011;49533;-34.520;150.798;2022-09-03T03:57:47;4.65;;;1.45;;
63398;SDS011;49533;-34.520;150.798;2022-09-03T04:00:14;8.48;;;2.15;;
63398;SDS011;49533;-34.520;150.798;2022-09-03T04:02:41;9.95;;;2.20;;
63398;SDS011;49533;-34.520;150.798;2022-09-03T04:05:08;9.75;;;1.55;;
63398;SDS011;49533;-34.520;150.798;2022-09-03T04:07:35;10.10;;;2.67;;
63398;SDS011;49533;-34.520;150.798;2022-09-03T04:10:03;4.10;;;1.05;;
63398;SDS011;49533;-34.520;150.798;2022-09-03T04:12:30;6.10;;;1.52;;
63398;SDS011;49533;-34.520;150.798;2022-09-03T04:14:57;7.53;;;1.60;;
63398;SDS011;49533;-34.520;150.798;2022-09-03T04:17:24;10.45;;;1.38;;
63398;SDS011;49533;-34.520;150.798;2022-09-03T04:19:53;6.13;;;1.25;;
63398;SDS011;49533;-34.520;150.798;2022-09-03T04:22:20;6.60;;;1.40;;
63398;SDS011;49533;-34.520;150.798;2022-09-03T04:24:47;4.35;;;1.70;;
63398;SDS011;49533;-34.520;150.798;2022-09-03T04:27:14;8.55;;;1.92;;
63398;SDS011;49533;-34.520;150.798;2022-09-03T04:29:41;6.60;;;1.52;;
63398;SDS011;49533;-34.520;150.798;2022-09-03T04:32:07;8.70;;;1.58;;
63398;SDS011;49533;-34.520;150.798;2022-09-03T04:34:46;9.65;;;1.48;;
63398;SDS011;49533;-34.520;150.798;2022-09-03T04:37:13;6.07;;;1.23;;
63398;SDS011;49533;-34.520;150.798;2022-09-03T04:39:44;6.32;;;0.98;;
63398;SDS011;49533;-34.520;150.798;2022-09-03T04:42:11;7.80;;;1.15;;
63398;SDS011;49533;-34.520;150.798;2022-09-03T04:44:38;8.05;;;1.85;;
63398;SDS011;49533;-34.520;150.798;2022-09-03T04:47:05;4.78;;;1.88;;
63398;SDS011;49533;-34.520;150.798;2022-09-03T04:49:32;4.25;;;1.10;;
63398;SDS011;49533;-34.520;150.798;2022-09-03T04:52:00;9.00;;;1.27;;
63398;SDS011;49533;-34.520;150.798;2022-09-03T04:54:27;4.90;;;1.27;;
63398;SDS011;49533;-34.520;150.798;2022-09-03T04:56:54;4.70;;;1.33;;
63398;SDS011;49533;-34.520;150.798;2022-09-03T04:59:21;9.55;;;1.60;;
63398;SDS011;49533;-34.520;150.798;2022-09-03T05:01:48;5.97;;;1.10;;
63398;SDS011;49533;-34.520;150.798;2022-09-03T05:04:17;6.90;;;1.55;;
63398;SDS011;49533;-34.520;150.798;2022-09-03T05:06:45;4.68;;;1.00;;
63398;SDS011;49533;-34.520;150.798;2022-09-03T05:09:12;5.45;;;1.48;;
63398;SDS011;49533;-34.520;150.798;2022-09-03T05:11:39;5.03;;;1.02;;
63398;SDS011;49533;-34.520;150.798;2022-09-03T05:14:06;5.30;;;1.25;;
63398;SDS011;49533;-34.520;150.798;2022-09-03T05:16:37;3.90;;;1.27;;
63398;SDS011;49533;-34.520;150.798;2022-09-03T05:19:04;4.75;;;1.35;;
63398;SDS011;49533;-34.520;150.798;2022-09-03T05:21:32;4.40;;;1.55;;
63398;SDS011;49533;-34.520;150.798;2022-09-03T05:24:00;5.00;;;0.98;;
63398;SDS011;49533;-34.520;150.798;2022-09-03T05:26:29;3.00;;;0.93;;
63398;SDS011;49533;-34.520;150.798;2022-09-03T05:28:58;6.97;;;1.65;;
63398;SDS011;49533;-34.520;150.798;2022-09-03T05:31:27;4.72;;;1.48;;
63398;SDS011;49533;-34.520;150.798;2022-09-03T05:33:57;3.10;;;1.00;;
63398;SDS011;49533;-34.520;150.798;2022-09-03T05:36:27;7.63;;;1.25;;
63398;SDS011;49533;-34.520;150.798;2022-09-03T05:38:56;5.57;;;1.40;;
63398;SDS011;49533;-34.520;150.798;2022-09-03T05:41:24;4.18;;;1.20;;
63398;SDS011;49533;-34.520;150.798;2022-09-03T05:43:52;5.13;;;1.25;;
63398;SDS011;49533;-34.520;150.798;2022-09-03T05:46:24;7.22;;;1.40;;
63398;SDS011;49533;-34.520;150.798;2022-09-03T05:48:57;5.20;;;0.98;;
63398;SDS011;49533;-34.520;150.798;2022-09-03T05:51:25;10.18;;;2.65;;
63398;SDS011;49533;-34.520;150.798;2022-09-03T05:53:53;8.30;;;1.48;;
63398;SDS011;49533;-34.520;150.798;2022-09-03T05:56:20;12.23;;;2.17;;
63398;SDS011;49533;-34.520;150.798;2022-09-03T05:58:50;12.07;;;1.98;;
63398;SDS011;49533;-34.520;150.798;2022-09-03T06:01:19;6.07;;;1.63;;
63398;SDS011;49533;-34.520;150.798;2022-09-03T06:03:54;11.02;;;2.60;;
63398;SDS011;49533;-34.520;150.798;2022-09-03T06:06:23;10.82;;;2.25;;
63398;SDS011;49533;-34.520;150.798;2022-09-03T06:08:52;12.32;;;1.85;;
63398;SDS011;49533;-34.520;150.798;2022-09-03T06:11:23;7.75;;;1.42;;
63398;SDS011;49533;-34.520;150.798;2022-09-03T06:13:53;11.60;;;2.17;;
63398;SDS011;49533;-34.520;150.798;2022-09-03T06:16:21;8.38;;;1.63;;
63398;SDS011;49533;-34.520;150.798;2022-09-03T06:18:48;10.95;;;2.28;;
63398;SDS011;49533;-34.520;150.798;2022-09-03T06:21:15;10.43;;;1.92;;
63398;SDS011;49533;-34.520;150.798;2022-09-03T06:23:42;10.27;;;1.80;;
63398;SDS011;49533;-34.520;150.798;2022-09-03T06:26:16;6.20;;;1.63;;
63398;SDS011;49533;-34.520;150.798;2022-09-03T06:28:45;6.00;;;1.70;;
63398;SDS011;49533;-34.520;150.798;2022-09-03T06:31:15;4.63;;;1.35;;
63398;SDS011;49533;-34.520;150.798;2022-09-03T06:33:44;7.35;;;2.08;;
63398;SDS011;49533;-34.520;150.798;2022-09-03T06:36:13;8.25;;;2.60;;
63398;SDS011;49533;-34.520;150.798;2022-09-03T06:38:42;6.93;;;1.55;;
63398;SDS011;49533;-34.520;150.798;2022-09-03T06:41:11;8.32;;;1.75;;
63398;SDS011;49533;-34.520;150.798;2022-09-03T06:43:45;6.53;;;2.22;;
63398;SDS011;49533;-34.520;150.798;2022-09-03T06:46:16;10.35;;;2.30;;
63398;SDS011;49533;-34.520;150.798;2022-09-03T06:48:44;5.25;;;1.33;;
63398;SDS011;49533;-34.520;150.798;2022-09-03T06:51:13;5.43;;;1.80;;
63398;SDS011;49533;-34.520;150.798;2022-09-03T06:53:44;7.32;;;1.83;;
63398;SDS011;49533;-34.520;150.798;2022-09-03T06:56:14;7.45;;;1.58;;
63398;SDS011;49533;-34.520;150.798;2022-09-03T06:58:44;7.40;;;1.98;;
63398;SDS011;49533;-34.520;150.798;2022-09-03T07:01:15;6.00;;;1.77;;
63398;SDS011;49533;-34.520;150.798;2022-09-03T07:03:44;5.95;;;1.67;;
63398;SDS011;49533;-34.520;150.798;2022-09-03T07:06:13;4.63;;;1.90;;
63398;SDS011;49533;-34.520;150.798;2022-09-03T07:08:43;4.60;;;1.80;;
63398;SDS011;49533;-34.520;150.798;2022-09-03T07:11:12;3.78;;;1.20;;
63398;SDS011;49533;-34.520;150.798;2022-09-03T07:13:44;7.40;;;2.05;;
63398;SDS011;49533;-34.520;150.798;2022-09-03T07:16:13;7.82;;;1.83;;
63398;SDS011;49533;-34.520;150.798;2022-09-03T07:18:42;4.90;;;1.67;;
63398;SDS011;49533;-34.520;150.798;2022-09-03T07:21:10;7.30;;;2.00;;
63398;SDS011;49533;-34.520;150.798;2022-09-03T07:23:39;4.70;;;1.50;;
63398;SDS011;49533;-34.520;150.798;2022-09-03T07:26:07;4.95;;;1.50;;
63398;SDS011;49533;-34.520;150.798;2022-09-03T07:28:37;4.53;;;1.45;;
63398;SDS011;49533;-34.520;150.798;2022-09-03T07:31:10;6.10;;;1.60;;
63398;SDS011;49533;-34.520;150.798;2022-09-03T07:33:39;3.85;;;1.27;;
63398;SDS011;49533;-34.520;150.798;2022-09-03T07:36:09;5.15;;;1.10;;
63398;SDS011;49533;-34.520;150.798;2022-09-03T07:38:38;4.80;;;1.48;;
63398;SDS011;49533;-34.520;150.798;2022-09-03T07:41:07;4.75;;;1.65;;
63398;SDS011;49533;-34.520;150.798;2022-09-03T07:43:37;4.80;;;1.60;;
63398;SDS011;49533;-34.520;150.798;2022-09-03T07:46:09;4.70;;;1.20;;
63398;SDS011;49533;-34.520;150.798;2022-09-03T07:48:39;3.67;;;1.50;;
63398;SDS011;49533;-34.520;150.798;2022-09-03T07:51:07;3.28;;;1.38;;
63398;SDS011;49533;-34.520;150.798;2022-09-03T07:53:35;4.45;;;1.27;;
63398;SDS011;49533;-34.520;150.798;2022-09-03T07:56:03;3.58;;;1.95;;
63398;SDS011;49533;-34.520;150.798;2022-09-03T07:58:32;5.05;;;1.30;;
63398;SDS011;49533;-34.520;150.798;2022-09-03T08:01:04;5.82;;;1.65;;
63398;SDS011;49533;-34.520;150.798;2022-09-03T08:03:33;3.58;;;1.05;;
63398;SDS011;49533;-34.520;150.798;2022-09-03T08:06:02;6.10;;;2.08;;
63398;SDS011;49533;-34.520;150.798;2022-09-03T08:08:30;2.97;;;1.40;;
63398;SDS011;49533;-34.520;150.798;2022-09-03T08:11:05;5.57;;;1.98;;
63398;SDS011;49533;-34.520;150.798;2022-09-03T08:13:37;4.82;;;1.63;;
63398;SDS011;49533;-34.520;150.798;2022-09-03T08:16:10;2.72;;;1.08;;
63398;SDS011;49533;-34.520;150.798;2022-09-03T08:18:38;2.97;;;1.10;;
63398;SDS011;49533;-34.520;150.798;2022-09-03T08:21:07;3.35;;;1.33;;
63398;SDS011;49533;-34.520;150.798;2022-09-03T08:23:41;4.00;;;1.73;;
63398;SDS011;49533;-34.520;150.798;2022-09-03T08:26:09;4.38;;;1.60;;
63398;SDS011;49533;-34.520;150.798;2022-09-03T08:28:38;2.15;;;0.82;;
63398;SDS011;49533;-34.520;150.798;2022-09-03T08:31:07;3.20;;;1.38;;
63398;SDS011;49533;-34.520;150.798;2022-09-03T08:33:37;3.35;;;1.00;;
63398;SDS011;49533;-34.520;150.798;2022-09-03T08:36:09;6.72;;;1.70;;
63398;SDS011;49533;-34.520;150.798;2022-09-03T08:38:39;2.83;;;1.20;;
63398;SDS011;49533;-34.520;150.798;2022-09-03T08:41:10;5.15;;;1.50;;
63398;SDS011;49533;-34.520;150.798;2022-09-03T08:43:47;7.15;;;1.40;;
63398;SDS011;49533;-34.520;150.798;2022-09-03T08:46:43;6.50;;;1.70;;
63398;SDS011;49533;-34.520;150.798;2022-09-03T08:49:18;3.83;;;1.23;;
63398;SDS011;49533;-34.520;150.798;2022-09-03T08:51:53;4.07;;;1.63;;
63398;SDS011;49533;-34.520;150.798;2022-09-03T08:54:24;4.65;;;1.60;;
63398;SDS011;49533;-34.520;150.798;2022-09-03T08:56:55;1.67;;;0.80;;
63398;SDS011;49533;-34.520;150.798;2022-09-03T08:59:27;1.30;;;0.93;;
63398;SDS011;49533;-34.520;150.798;2022-09-03T09:02:01;2.13;;;1.08;;
63398;SDS011;49533;-34.520;150.798;2022-09-03T09:05:02;2.78;;;1.10;;
63398;SDS011;49533;-34.520;150.798;2022-09-03T09:07:33;1.10;;;1.00;;
63398;SDS011;49533;-34.520;150.798;2022-09-03T09:10:23;3.33;;;1.20;;
63398;SDS011;49533;-34.520;150.798;2022-09-03T09:13:16;2.38;;;1.00;;
63398;SDS011;49533;-34.520;150.798;2022-09-03T09:16:07;2.85;;;0.90;;
63398;SDS011;49533;-34.520;150.798;2022-09-03T09:18:53;3.50;;;1.35;;
63398;SDS011;49533;-34.520;150.798;2022-09-03T09:21:39;2.00;;;1.00;;
63398;SDS011;49533;-34.520;150.798;2022-09-03T09:24:15;4.13;;;1.55;;
63398;SDS011;49533;-34.520;150.798;2022-09-03T09:26:54;3.70;;;1.30;;
63398;SDS011;49533;-34.520;150.798;2022-09-03T09:29:26;4.63;;;1.60;;
63398;SDS011;49533;-34.520;150.798;2022-09-03T09:31:57;3.45;;;1.30;;
63398;SDS011;49533;-34.520;150.798;2022-09-03T09:34:25;6.90;;;1.20;;
63398;SDS011;49533;-34.520;150.798;2022-09-03T09:36:53;2.92;;;1.15;;
63398;SDS011;49533;-34.520;150.798;2022-09-03T09:39:21;6.20;;;1.55;;
63398;SDS011;49533;-34.520;150.798;2022-09-03T09:44:36;3.30;;;1.30;;
63398;SDS011;49533;-34.520;150.798;2022-09-03T09:47:06;3.65;;;1.13;;
63398;SDS011;49533;-34.520;150.798;2022-09-03T09:49:50;1.77;;;0.70;;
63398;SDS011;49533;-34.520;150.798;2022-09-03T09:52:18;4.28;;;1.13;;
63398;SDS011;49533;-34.520;150.798;2022-09-03T09:54:50;6.22;;;1.33;;
63398;SDS011;49533;-34.520;150.798;2022-09-03T09:57:21;3.22;;;1.30;;
63398;SDS011;49533;-34.520;150.798;2022-09-03T10:00:00;4.55;;;1.80;;
63398;SDS011;49533;-34.520;150.798;2022-09-03T10:02:34;3.78;;;1.40;;
63398;SDS011;49533;-34.520;150.798;2022-09-03T10:05:12;2.60;;;0.93;;
63398;SDS011;49533;-34.520;150.798;2022-09-03T10:07:59;1.70;;;0.82;;
63398;SDS011;49533;-34.520;150.798;2022-09-03T10:10:29;2.42;;;0.77;;
63398;SDS011;49533;-34.520;150.798;2022-09-03T10:13:05;2.20;;;0.93;;
63398;SDS011;49533;-34.520;150.798;2022-09-03T10:15:39;4.65;;;1.45;;
63398;SDS011;49533;-34.520;150.798;2022-09-03T10:18:21;3.88;;;1.05;;
63398;SDS011;49533;-34.520;150.798;2022-09-03T10:21:04;2.92;;;0.85;;
63398;SDS011;49533;-34.520;150.798;2022-09-03T10:23:47;3.05;;;0.90;;
63398;SDS011;49533;-34.520;150.798;2022-09-03T10:26:22;3.55;;;0.98;;
63398;SDS011;49533;-34.520;150.798;2022-09-03T10:28:55;2.67;;;1.25;;
63398;SDS011;49533;-34.520;150.798;2022-09-03T10:31:28;3.55;;;1.23;;
63398;SDS011;49533;-34.520;150.798;2022-09-03T10:37:10;2.15;;;0.57;;
63398;SDS011;49533;-34.520;150.798;2022-09-03T10:42:42;2.42;;;1.30;;
63398;SDS011;49533;-34.520;150.798;2022-09-03T10:48:21;4.65;;;1.13;;
63398;SDS011;49533;-34.520;150.798;2022-09-03T10:51:05;2.80;;;1.17;;
63398;SDS011;49533;-34.520;150.798;2022-09-03T10:53:52;2.90;;;1.13;;
63398;SDS011;49533;-34.520;150.798;2022-09-03T10:56:46;2.05;;;1.42;;
63398;SDS011;49533;-34.520;150.798;2022-09-03T10:59:31;2.35;;;1.33;;
63398;SDS011;49533;-34.520;150.798;2022-09-03T11:02:16;3.08;;;1.02;;
63398;SDS011;49533;-34.520;150.798;2022-09-03T11:05:02;1.70;;;1.10;;
63398;SDS011;49533;-34.520;150.798;2022-09-03T11:07:35;3.75;;;1.40;;
63398;SDS011;49533;-34.520;150.798;2022-09-03T11:10:11;2.38;;;0.80;;
63398;SDS011;49533;-34.520;150.798;2022-09-03T11:12:56;1.50;;;0.82;;
63398;SDS011;49533;-34.520;150.798;2022-09-03T11:15:31;2.40;;;1.20;;
63398;SDS011;49533;-34.520;150.798;2022-09-03T11:18:06;2.20;;;1.13;;
63398;SDS011;49533;-34.520;150.798;2022-09-03T11:20:41;1.25;;;0.70;;
63398;SDS011;49533;-34.520;150.798;2022-09-03T11:23:10;2.83;;;1.30;;
63398;SDS011;49533;-34.520;150.798;2022-09-03T11:25:40;3.90;;;1.30;;
63398;SDS011;49533;-34.520;150.798;2022-09-03T11:28:28;3.53;;;1.80;;
63398;SDS011;49533;-34.520;150.798;2022-09-03T11:31:14;2.33;;;1.13;;
63398;SDS011;49533;-34.520;150.798;2022-09-03T11:34:05;2.80;;;0.73;;
63398;SDS011;49533;-34.520;150.798;2022-09-03T11:36:38;2.75;;;1.00;;
63398;SDS011;49533;-34.520;150.798;2022-09-03T11:39:13;1.60;;;0.77;;
63398;SDS011;49533;-34.520;150.798;2022-09-03T11:44:36;3.30;;;1.27;;
63398;SDS011;49533;-34.520;150.798;2022-09-03T11:47:14;1.35;;;0.68;;
63398;SDS011;49533;-34.520;150.798;2022-09-03T11:50:07;2.63;;;1.00;;
63398;SDS011;49533;-34.520;150.798;2022-09-03T11:53:06;1.48;;;0.73;;
63398;SDS011;49533;-34.520;150.798;2022-09-03T11:55:48;0.93;;;0.60;;
63398;SDS011;49533;-34.520;150.798;2022-09-03T11:58:30;2.53;;;1.17;;
63398;SDS011;49533;-34.520;150.798;2022-09-03T12:01:01;3.30;;;1.15;;
63398;SDS011;49533;-34.520;150.798;2022-09-03T12:03:50;3.53;;;0.95;;
63398;SDS011;49533;-34.520;150.798;2022-09-03T12:10:02;1.92;;;0.90;;
63398;SDS011;49533;-34.520;150.798;2022-09-03T12:14:55;2.75;;;1.20;;
63398;SDS011;49533;-34.520;150.798;2022-09-03T12:20:45;1.35;;;0.60;;
63398;SDS011;49533;-34.520;150.798;2022-09-03T12:23:34;3.25;;;1.10;;
63398;SDS011;49533;-34.520;150.798;2022-09-03T12:26:11;4.03;;;0.93;;
63398;SDS011;49533;-34.520;150.798;2022-09-03T12:28:48;0.75;;;0.75;;
63398;SDS011;49533;-34.520;150.798;2022-09-03T12:31:17;2.05;;;0.77;;
63398;SDS011;49533;-34.520;150.798;2022-09-03T12:36:21;3.85;;;1.30;;
63398;SDS011;49533;-34.520;150.798;2022-09-03T12:38:49;3.83;;;1.23;;
63398;SDS011;49533;-34.520;150.798;2022-09-03T12:41:26;4.53;;;1.10;;
63398;SDS011;49533;-34.520;150.798;2022-09-03T12:43:57;2.35;;;1.08;;
63398;SDS011;49533;-34.520;150.798;2022-09-03T12:46:27;3.03;;;0.90;;
63398;SDS011;49533;-34.520;150.798;2022-09-03T12:49:02;2.85;;;1.02;;
63398;SDS011;49533;-34.520;150.798;2022-09-03T12:51:39;3.13;;;0.95;;
63398;SDS011;49533;-34.520;150.798;2022-09-03T12:54:09;2.60;;;0.98;;
63398;SDS011;49533;-34.520;150.798;2022-09-03T12:56:41;3.00;;;1.23;;
63398;SDS011;49533;-34.520;150.798;2022-09-03T12:59:18;2.92;;;1.73;;
63398;SDS011;49533;-34.520;150.798;2022-09-03T13:01:50;2.13;;;1.17;;
63398;SDS011;49533;-34.520;150.798;2022-09-03T13:04:22;2.55;;;1.17;;
63398;SDS011;49533;-34.520;150.798;2022-09-03T13:07:04;4.18;;;0.93;;
63398;SDS011;49533;-34.520;150.798;2022-09-03T13:09:38;2.35;;;1.23;;
63398;SDS011;49533;-34.520;150.798;2022-09-03T13:12:19;1.50;;;1.10;;
63398;SDS011;49533;-34.520;150.798;2022-09-03T13:14:47;2.92;;;1.05;;
63398;SDS011;49533;-34.520;150.798;2022-09-03T13:17:18;4.07;;;1.23;;
63398;SDS011;49533;-34.520;150.798;2022-09-03T13:25:13;2.58;;;0.88;;
63398;SDS011;49533;-34.520;150.798;2022-09-03T13:31:18;2.35;;;0.88;;
63398;SDS011;49533;-34.520;150.798;2022-09-03T13:33:38;2.22;;;0.88;;
63398;SDS011;49533;-34.520;150.798;2022-09-03T13:36:14;3.92;;;0.75;;
63398;SDS011;49533;-34.520;150.798;2022-09-03T13:38:45;1.90;;;1.10;;
63398;SDS011;49533;-34.520;150.798;2022-09-03T13:41:29;2.17;;;0.90;;
63398;SDS011;49533;-34.520;150.798;2022-09-03T13:47:18;0.63;;;0.60;;
63398;SDS011;49533;-34.520;150.798;2022-09-03T13:53:31;2.28;;;0.98;;
63398;SDS011;49533;-34.520;150.798;2022-09-03T13:56:03;1.73;;;0.70;;
63398;SDS011;49533;-34.520;150.798;2022-09-03T13:58:49;1.88;;;0.73;;
63398;SDS011;49533;-34.520;150.798;2022-09-03T14:01:38;1.33;;;0.80;;
63398;SDS011;49533;-34.520;150.798;2022-09-03T14:06:52;1.77;;;0.85;;
63398;SDS011;49533;-34.520;150.798;2022-09-03T14:17:49;2.80;;;0.90;;
63398;SDS011;49533;-34.520;150.798;2022-09-03T14:20:32;0.68;;;0.68;;
63398;SDS011;49533;-34.520;150.798;2022-09-03T14:26:15;0.80;;;0.55;;
63398;SDS011;49533;-34.520;150.798;2022-09-03T14:29:49;2.00;;;0.80;;
63398;SDS011;49533;-34.520;150.798;2022-09-03T14:34:54;1.48;;;0.55;;
63398;SDS011;49533;-34.520;150.798;2022-09-03T14:43:01;1.85;;;0.70;;
63398;SDS011;49533;-34.520;150.798;2022-09-03T14:48:21;0.73;;;0.50;;
63398;SDS011;49533;-34.520;150.798;2022-09-03T14:54:42;2.15;;;0.63;;
63398;SDS011;49533;-34.520;150.798;2022-09-03T14:57:52;1.15;;;0.60;;
63398;SDS011;49533;-34.520;150.798;2022-09-03T15:03:19;2.53;;;0.60;;
63398;SDS011;49533;-34.520;150.798;2022-09-03T15:09:31;1.95;;;0.57;;
63398;SDS011;49533;-34.520;150.798;2022-09-03T15:15:21;0.65;;;0.50;;
63398;SDS011;49533;-34.520;150.798;2022-09-03T15:17:59;0.70;;;0.50;;
63398;SDS011;49533;-34.520;150.798;2022-09-03T15:26:13;1.95;;;0.40;;
63398;SDS011;49533;-34.520;150.798;2022-09-03T15:35:08;1.20;;;0.55;;
63398;SDS011;49533;-34.520;150.798;2022-09-03T15:37:56;0.30;;;0.30;;
63398;SDS011;49533;-34.520;150.798;2022-09-03T15:43:04;1.05;;;0.60;;
63398;SDS011;49533;-34.520;150.798;2022-09-03T15:45:56;0.57;;;0.38;;
63398;SDS011;49533;-34.520;150.798;2022-09-03T15:48:32;2.38;;;0.47;;
63398;SDS011;49533;-34.520;150.798;2022-09-03T15:53:40;2.05;;;0.50;;
63398;SDS011;49533;-34.520;150.798;2022-09-03T15:59:53;0.68;;;0.52;;
63398;SDS011;49533;-34.520;150.798;2022-09-03T16:05:56;0.50;;;0.50;;
63398;SDS011;49533;-34.520;150.798;2022-09-03T16:11:12;0.65;;;0.60;;
63398;SDS011;49533;-34.520;150.798;2022-09-03T16:16:25;2.72;;;0.88;;
63398;SDS011;49533;-34.520;150.798;2022-09-03T16:21:31;1.05;;;0.70;;
63398;SDS011;49533;-34.520;150.798;2022-09-03T16:27:22;1.25;;;0.60;;
63398;SDS011;49533;-34.520;150.798;2022-09-03T16:29:56;1.85;;;0.55;;
63398;SDS011;49533;-34.520;150.798;2022-09-03T16:32:45;1.75;;;0.60;;
63398;SDS011;49533;-34.520;150.798;2022-09-03T16:38:31;1.13;;;0.40;;
63398;SDS011;49533;-34.520;150.798;2022-09-03T16:41:22;2.58;;;0.90;;
63398;SDS011;49533;-34.520;150.798;2022-09-03T16:44:05;1.92;;;0.55;;
63398;SDS011;49533;-34.520;150.798;2022-09-03T17:00:19;0.95;;;0.50;;
63398;SDS011;49533;-34.520;150.798;2022-09-03T17:05:55;0.88;;;0.68;;
63398;SDS011;49533;-34.520;150.798;2022-09-03T17:14:23;1.80;;;0.77;;
63398;SDS011;49533;-34.520;150.798;2022-09-03T17:31:09;3.05;;;1.00;;
63398;SDS011;49533;-34.520;150.798;2022-09-03T17:34:15;1.50;;;0.75;;
63398;SDS011;49533;-34.520;150.798;2022-09-03T17:36:57;1.47;;;0.50;;